Create Custom Reports and Graphics: Custom Report

Latest Observations

Map

15 Minute Data

Latest Observation

39 Stations

15 Minute Data | America/Los_Angeles
as of 7/27/21 6:11 PM PDT
Station Date Time Temp (°F) RH (%) Dew Pt (°F) Wind Dir (°) Wind Spd (mph) Wind Gust (mph) Solar Rad (W/m2) Latest Rain (In) Daily Rain (In) Daily Max Temp (°F) Daily Min Temp (°F) Daily Max Wind (mph) Daily ETo (in) Daily Leaf Wet Hrs (hrs)
Colony 1 7/27/21 1800 95.1   11.3 23   8 51.9   2.0 NNW | 348 8.3   3.6 14.8   5.9 428   74 0.00 0.00 96.7   8.8 63.6   3.0 19.1   7.4 0.220   0.028 -
Colony 2 7/27/21 1800 93.8   10.2 29   2 57.0   7.3 NW | 322 6.0   0.5 11.1   1.1 387   21 0.00 0.00 96.6   8.5 62.9   2.4 15.1   1.0 0.204   0.017 -
5 Wells 7/27/21 1800 94.5   7.4 25   2 53.0   4.2 NW | 323 7.6   1.0 13.6   3.7 397   75 0.00 0.00 96.9   7.6 63.3   2.1 15.3   0.6 0.200   0.019 -
Simmerhorn 7/27/21 1800 94.7   8.1 21   5 48.2   1.3 - - - - - - 96.8   7.8 65.1   4.6 - - -
Galt-East 7/27/21 1800 95.3   7.6 21   5 49.8   0.6 NNW | 332 7.6   2.7 12.5   4.1 365   148 0.00 0.00 98.7   8.7 65.3   5.0 15.5   4.0 0.198   0.041 -
Borden Hills 7/27/21 1800 94.7   7.9 30   5 58.7   2.4 NW | 326 7.3   3.6 12.6   4.5 385   146 0.00 0.00 97.6   6.7 66.3   3.4 15.2   1.5 0.218   0.026 -
Sierra Loma-L27 7/27/21 1800 94.7   7.2 28   4 56.3   2.3 WSW | 250 7.4   3.7 13.1   4.6 - 0.00 0.00 97.6   6.9 65.2   3.0 14.8   2.3 - -
Lockeford 7/27/21 1800 93.6   7.8 25   3 52.4   3.8 NNW | 328 6.1   1.0 10.8   1.7 353   98 0.00 0.00 96.5   7.6 64.3   4.0 13.2   2.3 0.193   0.035 0.0   0.0
Lone Oak-L28 7/27/21 1800 93.6   6.0 29   2 56.9   3.2 NNW | 329 6.4   2.7 11.9   5.3 - 0.00 0.00 96.1   5.1 65.0   6.3 13.6   4.0 - -
Kost Rd 7/27/21 1800 93.7   9.7 27   8 54.3   1.3 NNW | 333 6.5   2.6 12.6   3.6 317   26 0.00 0.00 97.0   9.0 59.6   0.1 15.1   4.3 0.174   0.033 -
Thornton 7/27/21 1800 92.0   9.1 28   6 54.2   2.4 NNW | 334 9.2   2.3 15.8   4.4 390   34 0.00 0.00 94.5   6.4 60.4   0.2 16.8   2.0 0.095   0.010 0.0   0.0
Lodi (LangeTwins) 7/27/21 1800 93.8   8.6 28   7 55.7   1.0 NNW | 345 7.4   4.1 11.8   2.7 390   28 0.00 0.00 95.7   7.4 61.7   1.7 14.2   0.0 0.211   0.034 0.0   0.0
Gilbeau Ranch 7/27/21 1800 94.5   9.2 25   7 52.8   0.9 NW | 318 3.8   0.3 7.8   1.1 433   101 0.00 0.00 97.9   9.2 64.2   4.0 11.3   0.2 0.209   0.026 -
Galt West 7/27/21 1800 92.8   10.5 28   5 55.1   4.7 NNW | 334 7.3   1.0 12.4   1.1 382   34 0.00 0.00 95.8   9.1 60.5   2.5 15.6   2.1 0.177   0.020 -
Valley Oak 7/27/21 1800 92.3   10.1 25   4 51.8   4.8 NW | 326 6.0   0.4 10.3   1.8 394   34 0.00 0.00 94.7   7.5 60.2   0.5 13.5   0.2 0.190   0.028 -
Guard Rd (Lodi WSW) 7/27/21 1800 89.9   7.3 36   7 59.3   1.5 NW | 320 5.5   1.1 12.8   2.7 419   44 0.00 0.00 92.6   6.7 59.0   2.6 14.1   4.1 0.204   0.039 7.1   1.9
Linden 7/27/21 1800 94.6   5.0 26   3 54.6   1.1 N | 351 4.2   1.6 9.3   3.6 - 0.00 0.00 98.5   6.3 62.6   4.6 9.8   2.5 - 10.1   2.9
DeVries Road-North 7/27/21 1800 94.5   10.2 27   8 55.7   1.6 NW | 318 4.8   0.6 10.9   0.4 378   29 0.00 0.00 97.0   9.2 59.8   0.2 13.4   1.2 0.208   0.034 -
Acampo 7/27/21 1800 92.7   7.3 22   7 48.7   0.9 NNW | 334 6.4   1.7 12.1   4.0 395   39 - 0.00 95.9   7.8 61.9   2.1 13.5   3.7 0.216   0.040 0.0   0.0
Acampo (Woodbridge) 7/27/21 1800 94.5   9.6 22   9 50.1   1.4 NNW | 337 8.3   1.9 13.8   2.5 389   46 0.00 0.00 96.5   8.9 63.6   2.9 16.5   5.2 0.231   0.055 -
Lodi West 7/27/21 1800 93.3   8.4 26   3 53.6   4.2 NW | 323 5.0   0.9 12.7   3.7 359   50 0.00 0.00 96.4   8.1 61.5   1.0 14.7   3.5 0.184   0.040 17.0   0.0
Teresi-Alpine Rd (East Lodi) 7/27/21 1800 95.2   6.1 21   6 49.6   1.2 N | 354 8.5   3.3 13.0   5.3 351   14 0.00 0.00 98.4   6.1 64.3   1.8 14.6   4.5 - -
Victor - N (Katusha) 7/27/21 1800 92.8   6.7 24   5 51.1   0.8 N | 357 6.5   2.2 13.1   4.4 - 0.00 0.00 96.7   7.6 63.2   3.4 - - -
Live Oak 7/27/21 1800 95.6   8.3 21   11 49.8   4.0 NW | 321 5.7   1.1 11.0   1.7 372   20 0.00 0.00 97.7   5.3 61.9   1.9 13.8   4.4 0.211   0.044 -
Sheldon 7/27/21 1800 92.9   10.0 26   1 52.5   7.7 NNW | 335 8.5   1.4 13.5   1.0 409   113 0.00 0.00 95.0   8.4 62.0   0.8 19.2   1.7 0.202   0.001 0.0   0.0
Sloughhouse 7/27/21 1800 92.6   10.1 24   1 50.2   7.2 NNW | 342 8.5   0.6 14.5   1.0 392   76 0.00 0.00 95.5   9.1 58.3   1.2 15.5   0.7 0.168   0.017 -
Utter - Wilson 7/27/21 1800 90.4   9.6 34   7 58.2   3.5 NNW | 333 8.7   2.5 17.5   1.6 362   4 0.00 0.00 94.0   9.5 62.1   3.7 18.1   4.6 0.198   0.020 -
Clarksburg 7/27/21 1800 90.5   10.3 27   7 51.6   2.9 N | 351 8.6   4.3 16.1   4.6 431   26 0.00 0.00 93.3   10.0 61.2   1.1 16.1   9.0 0.198   0.004 -
Clarksburg-3A2 7/27/21 1800 92.5   11.9 25   10 51.6   1.2 NW | 309 15.2   1.6 20.6   3.4 384   35 0.00 0.00 95.1   9.8 62.2   2.1 22.6   4.0 0.245   0.036 -
Gorter - Wilson 7/27/21 1800 90.6   10.4 34   4 58.4   6.3 NNW | 328 7.4   1.9 15.0   1.3 402   43 0.00 0.00 95.0   11.6 60.8   1.0 15.3   3.2 0.193   0.021 -
Hood 7/27/21 1800 90.2   10.2 33   3 57.0   6.3 NNW | 338 4.8   4.3 10.4   6.7 395   27 0.00 0.00 92.0   10.1 60.1   0.2 13.5   6.1 0.165   0.007 -
Courtland-C3 7/27/21 1800 90.8   11.3 31   7 56.0   4.1 NNW | 336 9.3   2.0 16.4   2.8 - 0.00 0.00 93.2   10.1 59.2   0.2 20.5   0.1 - -
Pacific Fruit 7/27/21 1800 90.9   12.9 32   10 57.1   4.1 N | 352 3.9   8.7 10.4   12.2 373   42 0.00 0.00 94.8   14.2 58.7   1.0 14.2   8.4 0.183   0.022 -
Ryer Island South 7/27/21 1800 90.4   9.1 28   1 52.8   8.4 NNW | 344 5.9   1.7 12.9   1.5 398   39 0.00 0.00 93.1   8.9 60.4   0.1 14.8   5.0 0.213   0.032 0.0   0.0
Farmington (Mobley100) 7/22/21 1145 83.1   1.3 39   6 55.6   3.1 NW | 312 1.9   0.3 6.4   1.1 - - - 84.0   1.4 56.7   2.7 7.6   0.1 - -
Collegeville 7/27/21 1800 96.3   5.6 24   1 54.0   3.7 NNW | 341 3.2   0.9 7.1   1.4 374   43 0.00 0.00 97.4   4.2 63.2   1.8 11.3   1.4 0.210   0.025 -
Oakdale North (28 Mile Rd) 7/27/21 1800 94.0   4.5 22   0 49.2   3.4 NW | 307 2.3   1.4 6.9   2.8 - - - 95.3   3.8 67.8   3.0 9.6   0.9 - -
Escalon 7/27/21 1800 95.1   3.8 25   2 54.2   1.5 WNW | 301 4.7   2.2 8.9   3.6 - 0.00 0.00 98.3   6.1 65.8   1.9 12.8   1.9 - 0.0   0.0
Claussen 7/27/21 1800 93.1   7.0 31   13 57.7   4.0 N | 0 0.0   0.0 0.0   0.0 409   36 0.00 0.00 95.2   4.2 62.2   1.8 0.0   0.0 0.221   0.035 -
Max     96.3 36 59.3 - 15.2 20.6 433 0.00 0.00 98.7 67.8 22.6 0.245 17.0
Avg     93.2 27 53.7 - 6.6 12.2 387 0.00 - - - - - -
Min     89.9 21 48.2 - 0.0 0.0 317 0.00 0.00 92.0 58.3 0.0 0.095 0.0

Latest Observations

Map

Hourly Data